createdAt,value
2018-10-16T00:01:47.350Z,55.17
2018-10-16T00:04:17.139Z,55.59
2018-10-16T00:06:47.047Z,55.34
2018-10-16T00:09:17.129Z,56.23
2018-10-16T00:29:07.810Z,55.63
2018-10-16T00:31:38.065Z,55.45
2018-10-16T00:34:08.462Z,56.62
2018-10-16T00:36:39.119Z,56.47
2018-10-16T00:39:12.654Z,55.91
2018-10-16T00:41:42.874Z,55.71
2018-10-16T00:44:13.592Z,55.76
2018-10-16T00:46:43.286Z,56.15
2018-10-16T00:49:13.867Z,56.37
2018-10-16T00:51:43.807Z,56.40
2018-10-16T00:54:13.662Z,56.62
2018-10-16T00:56:43.799Z,56.27
2018-10-16T00:59:13.619Z,57.13
2018-10-16T01:01:43.638Z,56.66
2018-10-16T01:04:13.463Z,56.44
2018-10-16T01:06:43.432Z,56.73
2018-10-16T01:09:14.721Z,56.72
2018-10-16T01:11:44.751Z,56.28
2018-10-16T01:14:14.648Z,56.01
2018-10-16T01:16:44.469Z,56.35
2018-10-16T01:19:14.230Z,56.79
2018-10-16T01:21:44.121Z,56.70
2018-10-16T01:24:14.302Z,57.16
2018-10-16T01:26:44.190Z,57.75
2018-10-16T01:29:13.959Z,57.83
2018-10-16T01:31:44.189Z,58.28
2018-10-16T01:34:14.110Z,58.21
2018-10-16T01:54:06.354Z,58.48
2018-10-16T01:56:36.061Z,58.00
2018-10-16T01:59:06.122Z,58.07
2018-10-16T02:01:36.954Z,58.28
2018-10-16T02:04:06.836Z,58.48
2018-10-16T02:06:37.014Z,57.87
2018-10-16T02:09:09.554Z,58.56
2018-10-16T02:11:39.559Z,58.74
2018-10-16T02:14:09.557Z,58.66
2018-10-16T02:16:39.843Z,58.97
2018-10-16T02:19:09.640Z,58.96
2018-10-16T02:21:39.364Z,59.35
2018-10-16T02:24:09.643Z,59.29
2018-10-16T02:26:39.501Z,59.62
2018-10-16T02:29:09.327Z,59.58
2018-10-16T02:31:39.978Z,59.95
2018-10-16T02:34:09.755Z,59.54
2018-10-16T02:36:39.789Z,59.89
2018-10-16T02:39:11.713Z,59.82
2018-10-16T02:41:41.375Z,60.20
2018-10-16T02:44:12.173Z,60.18
2018-10-16T02:46:42.480Z,60.75
2018-10-16T02:49:12.378Z,60.78
2018-10-16T02:51:42.026Z,60.86
2018-10-16T02:54:11.602Z,60.99
2018-10-16T02:56:41.201Z,61.04
2018-10-16T02:59:12.389Z,61.71
2018-10-16T03:01:42.103Z,61.29
2018-10-16T03:04:11.708Z,61.39
2018-10-16T03:06:41.807Z,62.31
2018-10-16T03:09:11.442Z,63.23
2018-10-16T03:11:42.212Z,62.41
2018-10-16T03:14:11.834Z,62.73
2018-10-16T03:16:42.460Z,63.27
2018-10-16T03:19:12.667Z,63.53
2018-10-16T03:21:42.674Z,63.47
2018-10-16T03:24:12.485Z,63.38
2018-10-16T03:26:42.194Z,63.71
2018-10-16T03:29:11.861Z,62.59
2018-10-16T03:31:42.262Z,63.17
2018-10-16T03:34:11.889Z,63.32
2018-10-16T03:36:41.731Z,63.48
2018-10-16T03:39:13.631Z,63.70
2018-10-16T03:41:43.586Z,64.44
2018-10-16T03:44:15.128Z,63.87
2018-10-16T03:46:45.008Z,63.67
2018-10-16T03:49:14.817Z,64.13
2018-10-16T03:51:45.019Z,64.44
2018-10-16T03:54:14.702Z,64.67
2018-10-16T03:56:44.434Z,64.36
2018-10-16T03:59:14.595Z,64.37
2018-10-16T04:01:44.305Z,63.98
2018-10-16T04:04:14.071Z,64.00
2018-10-16T04:06:44.188Z,64.46
2018-10-16T04:09:13.907Z,64.82
2018-10-16T04:31:59.928Z,63.80
2018-10-16T04:34:29.789Z,64.15
2018-10-16T04:36:59.594Z,64.25
2018-10-16T04:39:29.143Z,64.40
2018-10-16T04:41:59.384Z,64.47
2018-10-16T05:01:51.226Z,64.95
2018-10-16T05:04:21.318Z,64.43
2018-10-16T05:24:14.424Z,63.81
2018-10-16T05:26:44.498Z,63.45
2018-10-16T05:29:14.458Z,62.83
2018-10-16T05:31:44.387Z,63.34
2018-10-16T05:34:14.473Z,63.08
2018-10-16T05:36:44.260Z,63.06
2018-10-16T05:39:14.095Z,62.83
2018-10-16T05:41:44.267Z,62.52
2018-10-16T05:44:14.034Z,62.65
2018-10-16T05:46:44.035Z,62.64
2018-10-16T05:49:13.809Z,62.38
2018-10-16T05:51:43.782Z,62.29
2018-10-16T05:54:13.624Z,62.15
2018-10-16T05:56:43.931Z,62.43
2018-10-16T05:59:13.698Z,61.94
2018-10-16T06:01:43.701Z,61.84
2018-10-16T06:04:13.516Z,61.91
2018-10-16T06:06:43.483Z,61.94
2018-10-16T06:09:13.238Z,61.48
2018-10-16T06:11:43.269Z,61.63
2018-10-16T06:14:12.996Z,61.56
2018-10-16T06:16:42.935Z,60.62
2018-10-16T06:19:12.719Z,61.37
2018-10-16T06:21:42.182Z,61.22
2018-10-16T06:24:11.773Z,60.88
2018-10-16T06:26:41.924Z,60.31
2018-10-16T06:29:11.450Z,60.65
2018-10-16T06:31:41.423Z,60.29
2018-10-16T06:34:11.410Z,60.67
2018-10-16T06:36:41.354Z,60.48
2018-10-16T06:56:33.745Z,59.21
2018-10-16T06:59:03.762Z,59.57
2018-10-16T07:01:33.510Z,58.92
2018-10-16T07:04:03.362Z,58.53
2018-10-16T07:06:33.317Z,58.59
2018-10-16T07:09:03.622Z,58.19
2018-10-16T07:11:33.740Z,58.28
2018-10-16T07:14:03.656Z,57.94
2018-10-16T07:16:33.473Z,58.14
2018-10-16T07:19:03.349Z,57.79
2018-10-16T07:21:33.188Z,57.74
2018-10-16T07:24:03.169Z,57.48
2018-10-16T07:26:33.114Z,56.78
2018-10-16T07:29:03.084Z,55.97
2018-10-16T07:31:32.932Z,55.78
2018-10-16T07:34:03.061Z,55.23
2018-10-16T07:36:32.875Z,54.80
2018-10-16T07:39:02.874Z,54.27
2018-10-16T07:41:32.865Z,54.39
2018-10-16T07:44:02.632Z,54.58
2018-10-16T07:46:32.514Z,53.50
2018-10-16T07:49:02.431Z,53.48
2018-10-16T07:51:32.263Z,52.03
2018-10-16T07:54:02.174Z,52.16
2018-10-16T07:56:32.367Z,53.04
2018-10-16T07:59:02.126Z,52.17
2018-10-16T08:01:31.927Z,51.84
2018-10-16T08:04:02.111Z,51.05
2018-10-16T08:06:31.935Z,51.02
2018-10-16T08:32:11.717Z,46.49
2018-10-16T08:34:41.487Z,45.53
2018-10-16T08:54:31.937Z,43.24
2018-10-16T08:57:01.832Z,42.91
2018-10-16T08:59:31.666Z,42.96
2018-10-16T09:02:01.770Z,41.99
2018-10-16T09:04:31.503Z,41.72
2018-10-16T09:07:01.374Z,41.27
2018-10-16T09:09:31.545Z,40.24
2018-10-16T09:12:01.422Z,40.21
2018-10-16T09:31:52.956Z,35.67
2018-10-16T09:34:22.793Z,35.47
2018-10-16T09:36:52.555Z,35.05
2018-10-16T09:39:22.679Z,33.80
2018-10-16T09:41:52.599Z,33.60
2018-10-16T09:44:22.512Z,33.01
2018-10-16T10:04:15.507Z,29.08
2018-10-16T10:06:45.513Z,29.49
2018-10-16T10:09:15.427Z,29.21
2018-10-16T10:11:45.609Z,28.55
2018-10-16T10:31:38.438Z,27.83
2018-10-16T10:34:08.538Z,26.78
2018-10-16T10:36:38.453Z,26.60
2018-10-16T10:39:10.551Z,27.03
2018-10-16T10:41:40.645Z,25.82
2018-10-16T11:01:32.335Z,24.50
2018-10-16T11:04:02.084Z,24.08
2018-10-16T11:06:32.030Z,23.08
2018-10-16T11:09:02.317Z,24.39
2018-10-16T11:11:32.159Z,23.72
2018-10-16T11:14:01.969Z,23.55
2018-10-16T11:16:32.088Z,23.39
2018-10-16T11:19:01.992Z,23.10
2018-10-16T11:21:31.850Z,22.39
2018-10-16T11:24:01.586Z,22.09
2018-10-16T11:26:31.447Z,22.28
2018-10-16T11:29:01.187Z,21.89
2018-10-16T11:31:31.355Z,20.73
2018-10-16T11:34:01.133Z,21.47
2018-10-16T11:36:31.071Z,20.36
2018-10-16T11:39:01.971Z,21.57
2018-10-16T11:41:31.841Z,21.00
2018-10-16T12:01:23.747Z,19.25
2018-10-16T12:32:49.827Z,16.54
2018-10-16T12:35:19.853Z,16.16
2018-10-16T12:37:49.651Z,16.03
2018-10-16T12:40:19.455Z,14.85
2018-10-16T12:42:49.581Z,14.50
2018-10-16T12:45:19.611Z,14.69
2018-10-16T12:47:49.402Z,14.04
2018-10-16T12:50:19.446Z,13.93
2018-10-16T12:52:49.265Z,14.14
2018-10-16T13:12:40.748Z,13.48
2018-10-16T13:15:11.737Z,12.69
2018-10-16T13:17:42.304Z,12.60
2018-10-16T13:20:13.358Z,12.83
2018-10-16T13:22:44.537Z,14.79
2018-10-16T13:25:15.195Z,15.94
2018-10-16T13:27:45.674Z,16.31
2018-10-16T13:47:39.344Z,18.25
2018-10-16T14:07:31.818Z,18.97
2018-10-16T14:10:01.482Z,18.79
2018-10-16T14:12:31.224Z,19.60
2018-10-16T14:15:01.137Z,20.15
2018-10-16T14:17:30.783Z,19.69
2018-10-16T14:20:00.400Z,20.20
2018-10-16T14:22:30.139Z,20.80
2018-10-16T14:24:59.763Z,20.17
2018-10-16T14:27:29.659Z,20.68
2018-10-16T14:29:59.729Z,20.87
2018-10-16T14:32:29.623Z,21.35
2018-10-16T14:34:59.532Z,21.39
2018-10-16T14:37:29.783Z,22.45
2018-10-16T14:39:59.710Z,23.00
2018-10-16T14:42:29.578Z,23.33
2018-10-16T14:44:59.337Z,24.63
2018-10-16T14:47:29.215Z,25.00
2018-10-16T14:49:58.989Z,25.58
2018-10-16T14:52:28.767Z,26.04
2018-10-16T14:54:58.648Z,26.37
2018-10-16T14:57:28.268Z,27.10
2018-10-16T14:59:58.209Z,27.61
2018-10-16T15:02:27.802Z,28.07
2018-10-16T15:22:19.958Z,28.73
2018-10-16T15:42:12.429Z,31.01
2018-10-16T15:44:42.153Z,31.33
2018-10-16T15:47:12.022Z,31.17
2018-10-16T15:49:41.961Z,31.16
2018-10-16T15:52:12.147Z,31.13
2018-10-16T15:54:42.291Z,31.12
2018-10-16T15:57:11.839Z,31.88
2018-10-16T15:59:41.636Z,32.45
2018-10-16T16:02:12.137Z,32.11
2018-10-16T16:04:41.846Z,32.64
2018-10-16T16:07:11.641Z,32.51
2018-10-16T16:09:41.254Z,32.86
2018-10-16T16:12:10.899Z,33.28
2018-10-16T16:14:40.585Z,33.69
2018-10-16T16:17:10.378Z,33.91
2018-10-16T16:19:40.348Z,33.29
2018-10-16T16:22:10.575Z,33.21
2018-10-16T16:24:40.264Z,33.32
2018-10-16T16:27:09.993Z,33.76
2018-10-16T16:29:39.857Z,34.13
2018-10-16T16:32:09.699Z,35.32
2018-10-16T16:34:39.583Z,35.87
2018-10-16T16:37:09.652Z,35.79
2018-10-16T16:39:39.624Z,35.87
2018-10-16T16:42:09.566Z,35.96
2018-10-16T16:44:39.310Z,36.25
2018-10-16T16:47:09.243Z,36.59
2018-10-16T16:49:39.459Z,36.87
2018-10-16T16:52:09.639Z,37.00
2018-10-16T16:54:39.581Z,36.53
2018-10-16T16:57:09.459Z,37.07
2018-10-16T16:59:39.520Z,36.58
2018-10-16T17:02:09.421Z,36.62
2018-10-16T17:04:39.209Z,36.96
2018-10-16T17:07:09.350Z,36.95
2018-10-16T17:09:39.324Z,37.92
2018-10-16T17:12:09.080Z,39.39
2018-10-16T17:14:38.969Z,39.37
2018-10-16T17:17:08.999Z,40.11
2018-10-16T17:19:38.619Z,40.24
2018-10-16T17:22:08.874Z,40.55
2018-10-16T17:24:38.538Z,40.57
2018-10-16T17:27:08.387Z,41.12
2018-10-16T17:29:38.583Z,41.03
2018-10-16T17:32:08.457Z,41.16
2018-10-16T17:34:38.378Z,41.42
2018-10-16T17:37:08.292Z,41.75
2018-10-16T17:39:38.103Z,41.17
2018-10-16T17:42:07.914Z,41.26
2018-10-16T17:44:37.889Z,41.60
2018-10-16T17:47:07.926Z,41.95
2018-10-16T17:49:37.846Z,42.07
2018-10-16T17:52:07.824Z,42.51
2018-10-16T17:54:37.804Z,42.44
2018-10-16T17:57:07.667Z,42.70
2018-10-16T17:59:37.876Z,43.79
2018-10-16T18:02:07.787Z,43.83
2018-10-16T18:04:37.824Z,43.86
2018-10-16T18:07:08.234Z,44.15
2018-10-16T18:09:38.222Z,44.00
2018-10-16T18:12:08.003Z,44.28
2018-10-16T18:14:37.972Z,44.21
2018-10-16T18:17:07.766Z,44.03
2018-10-16T18:19:37.556Z,45.41
2018-10-16T18:22:07.488Z,44.99
2018-10-16T18:24:37.309Z,44.57
2018-10-16T18:27:07.298Z,44.90
2018-10-16T18:29:37.371Z,44.93
2018-10-16T18:32:07.260Z,44.99
2018-10-16T18:34:37.008Z,45.02
2018-10-16T18:37:07.247Z,44.88
2018-10-16T18:39:36.954Z,44.99
2018-10-16T18:42:06.822Z,45.07
2018-10-16T18:44:36.710Z,46.04
2018-10-16T18:47:06.483Z,46.74
2018-10-16T18:49:36.334Z,47.63
2018-10-16T18:52:06.742Z,47.97
2018-10-16T18:54:36.705Z,48.56
2018-10-16T18:57:07.417Z,48.89
2018-10-16T18:59:37.357Z,49.40
2018-10-16T19:02:07.403Z,49.46
2018-10-16T19:04:37.239Z,49.65
2018-10-16T19:07:07.329Z,50.12
2018-10-16T19:09:36.965Z,49.95
2018-10-16T19:12:07.267Z,49.85
2018-10-16T19:14:37.756Z,49.44
2018-10-16T19:17:07.511Z,48.79
2018-10-16T19:19:37.443Z,48.72
2018-10-16T19:22:07.582Z,49.09
2018-10-16T19:24:37.424Z,49.60
2018-10-16T19:27:07.677Z,49.53
2018-10-16T19:29:37.679Z,49.25
2018-10-16T19:32:07.805Z,49.25
2018-10-16T19:34:37.784Z,48.82
2018-10-16T19:37:07.639Z,48.52
2018-10-16T19:39:37.506Z,48.91
2018-10-16T19:42:07.710Z,48.61
2018-10-16T19:44:37.310Z,48.04
2018-10-16T19:47:07.295Z,48.01
2018-10-16T19:49:37.326Z,48.18
2018-10-16T19:52:07.227Z,48.25
2018-10-16T19:54:37.248Z,47.97
2018-10-16T19:57:07.212Z,47.68
2018-10-16T19:59:37.119Z,47.37
2018-10-16T20:02:07.754Z,47.25
2018-10-16T20:04:38.064Z,47.57
2018-10-16T20:07:08.002Z,48.03
2018-10-16T20:09:37.703Z,48.48
2018-10-16T20:12:08.031Z,48.54
2018-10-16T20:14:37.883Z,48.89
2018-10-16T20:17:07.689Z,49.12
2018-10-16T20:19:37.688Z,49.46
2018-10-16T20:22:10.043Z,50.11
2018-10-16T20:24:40.075Z,49.69
2018-10-16T20:27:10.150Z,50.14
2018-10-16T20:29:40.190Z,50.01
2018-10-16T20:32:10.271Z,50.14
2018-10-16T20:34:40.055Z,49.72
2018-10-16T20:37:09.752Z,49.76
2018-10-16T20:39:39.556Z,50.59
2018-10-16T20:42:09.274Z,50.71
2018-10-16T20:44:39.302Z,50.80
2018-10-16T20:47:09.446Z,51.66
2018-10-16T20:49:39.365Z,50.96
2018-10-16T20:52:09.188Z,51.11
2018-10-16T20:54:39.335Z,51.30
2018-10-16T20:57:09.325Z,51.58
2018-10-16T20:59:40.974Z,51.45
2018-10-16T21:02:10.742Z,51.45
2018-10-16T21:04:40.482Z,51.84
2018-10-16T21:07:10.567Z,51.52
2018-10-16T21:09:40.170Z,52.05
2018-10-16T21:12:09.954Z,51.78
2018-10-16T21:14:39.971Z,52.05
2018-10-16T21:17:09.886Z,51.93
2018-10-16T21:19:39.841Z,52.37
2018-10-16T21:22:10.198Z,53.01
2018-10-16T21:24:40.138Z,52.45
2018-10-16T21:27:11.438Z,52.18
2018-10-16T21:29:41.260Z,52.17
2018-10-16T21:32:11.028Z,52.19
2018-10-16T21:34:40.817Z,52.55
2018-10-16T21:37:10.683Z,52.84
2018-10-16T21:39:40.664Z,52.77
2018-10-16T21:42:10.498Z,53.10
2018-10-16T21:44:40.241Z,52.51
2018-10-16T21:47:09.941Z,53.38
2018-10-16T21:49:40.042Z,53.25
2018-10-16T21:52:09.874Z,54.29
2018-10-16T21:54:39.744Z,53.69
2018-10-16T21:57:10.136Z,54.03
2018-10-16T21:59:40.249Z,54.21
2018-10-16T22:02:15.398Z,55.45
2018-10-16T22:04:45.195Z,54.34
2018-10-16T22:07:15.084Z,55.01
2018-10-16T22:09:45.181Z,55.43
2018-10-16T22:12:15.176Z,55.41
2018-10-16T22:14:44.999Z,55.76
2018-10-16T22:17:15.202Z,55.95
2018-10-16T22:19:45.040Z,55.53
2018-10-16T22:22:14.953Z,55.61
2018-10-16T22:24:45.103Z,56.39
2018-10-16T22:27:14.788Z,56.11
2018-10-16T22:29:44.692Z,56.27
2018-10-16T22:32:14.451Z,56.24
2018-10-16T22:34:44.433Z,55.78
2018-10-16T22:37:14.388Z,56.08
2018-10-16T22:39:44.585Z,56.17
2018-10-16T22:42:14.316Z,56.98
2018-10-16T22:44:44.224Z,56.06
2018-10-16T22:47:14.423Z,56.24
2018-10-16T22:49:44.231Z,56.55
2018-10-16T22:52:14.024Z,57.17
2018-10-16T22:54:44.283Z,57.17
2018-10-16T22:57:14.164Z,57.46
2018-10-16T22:59:44.191Z,57.32
2018-10-16T23:02:14.261Z,57.44
2018-10-16T23:04:44.251Z,57.58
2018-10-16T23:07:14.192Z,58.09
2018-10-16T23:09:44.153Z,58.04
2018-10-16T23:12:13.895Z,60.02
2018-10-16T23:14:43.774Z,60.15
2018-10-16T23:17:13.746Z,63.42
2018-10-16T23:19:43.524Z,64.10
2018-10-16T23:22:13.546Z,62.22
2018-10-16T23:24:43.731Z,62.00
2018-10-16T23:27:13.595Z,62.39
2018-10-16T23:29:43.477Z,61.53
2018-10-16T23:32:13.284Z,61.07
2018-10-16T23:34:42.926Z,60.84
2018-10-16T23:37:12.674Z,61.19
2018-10-16T23:39:42.700Z,60.71
2018-10-16T23:42:12.454Z,60.22
2018-10-16T23:44:42.333Z,60.84
2018-10-16T23:47:13.327Z,60.48
2018-10-16T23:49:43.080Z,59.32
2018-10-16T23:52:14.009Z,59.31
2018-10-16T23:54:43.976Z,59.71
2018-10-16T23:57:13.847Z,59.50
2018-10-16T23:59:43.667Z,59.71
